Gener8 Spyridon — V7BY9 — position and weather

sailwx.info

Track history (hours):
 
Tides and Currents Weather Stations Pressure Air Temp Water Temp Dewpoint Dewpoint Depression Visibility Wind Speed Wind Dir Waves Ship Positions

Gener8 Spyridon

Last reported at 2018-Jan-21 14:53 UTC. Time now 2018-Feb-21 03:25 UTC.
Position N 01°13' E 103°30'.
Warning: this ship's position is 30 days out of date.

Length 275 m; draft 9 m.

Type: Tanker. MMSI: 538001404.

Date/timePositionNaut miles runAvg speedWind from/ knotsBaromVisibWave heightAir tempDewpointWater temp
2018-Jan-21 14:53N 01°13' E 103°30'512.1
2018-Jan-21 14:28N 01°12' E 103°34'611.7
2018-Jan-21 13:59N 01°11' E 103°40'510.6
2018-Jan-21 13:30N 01°09' E 103°44'510.6
2018-Jan-21 13:00N 01°11' E 103°49'510.1
2018-Jan-21 12:30N 01°13' E 103°54'4 7.4
2018-Jan-21 12:00N 01°16' E 103°56'1 1.6
2018-Jan-21 11:22N 01°17' E 103°56'0 0.0
2018-Jan-21 10:40N 01°17' E 103°56'0 0.0
2018-Jan-21 09:43N 01°17' E 103°56'0 0.0
2018-Jan-21 09:28N 01°17' E 103°56'0 0.1
2018-Jan-21 08:58N 01°17' E 103°56'0 0.0
2018-Jan-21 08:28N 01°17' E 103°56'0 0.0
2018-Jan-21 07:58N 01°17' E 103°56'0 0.0
2018-Jan-21 06:28N 01°17' E 103°56'0 0.1
2018-Jan-21 05:55N 01°17' E 103°56'0 0.1
2018-Jan-21 03:49N 01°16' E 103°56'0 0.1
2018-Jan-21 03:25N 01°16' E 103°56'0 0.1
2018-Jan-21 02:22N 01°16' E 103°56'0 0.0
2018-Jan-21 01:01N 01°16' E 103°56'0 0.0
2018-Jan-21 00:52N 01°16' E 103°56'0 0.0
2018-Jan-21 00:22N 01°16' E 103°56'0 0.0
2018-Jan-20 23:52N 01°16' E 103°56'0 0.0
2018-Jan-20 23:25N 01°16' E 103°56'0 0.0
2018-Jan-20 22:55N 01°16' E 103°56'0 0.0
2018-Jan-20 20:25N 01°16' E 103°56'0 0.0
2018-Jan-20 19:25N 01°16' E 103°56'0 0.0
2018-Jan-20 18:37N 01°16' E 103°56'0 0.0
2018-Jan-20 18:22N 01°16' E 103°56'0 0.0
2018-Jan-20 17:59N 01°16' E 103°56'0 0.0
2018-Jan-20 17:23N 01°16' E 103°56'0 0.0
2018-Jan-20 16:57N 01°16' E 103°56'0 0.1
2018-Jan-20 16:30N 01°16' E 103°56'0 0.3
2018-Jan-20 15:59N 01°16' E 103°56'2 3.3
2018-Jan-20 15:30N 01°15' E 103°57'2 3.7
2018-Jan-20 14:59N 01°16' E 103°59'2 4.9
2018-Jan-20 14:31N 01°16' E 104°01'2 3.7
2018-Jan-20 13:58N 01°16' E 104°03'2 5.1
2018-Jan-20 13:29N 01°17' E 104°05'3 6.2
2018-Jan-20 12:57N 01°17' E 104°09'4 7.1
2018-Jan-20 12:22N 01°17' E 104°13'5 6.4
2018-Jan-20 11:31N 01°19' E 104°18'2 6.6
2018-Jan-20 11:15N 01°19' E 104°20'2 7.7
2018-Jan-20 10:57N 01°21' E 104°22'  
Track history (hours):
 
Tides and Currents Weather Stations Pressure Air Temp Water Temp Dewpoint Dewpoint Depression Visibility Wind Speed Wind Dir Waves Ship Positions

Gener8 Spyridon

Last reported at 2018-Jan-21 14:53 UTC. Time now 2018-Feb-21 03:25 UTC.
Position N 01°13' E 103°30'.
Warning: this ship's position is 30 days out of date.

Length 275 m; draft 9 m.

Type: Tanker. MMSI: 538001404.

Date/timePositionNaut miles runAvg speedWind from/ knotsBaromVisibWave heightAir tempDewpointWater temp
2018-Jan-21 14:53N 01°13' E 103°30'512.1
2018-Jan-21 14:28N 01°12' E 103°34'611.7
2018-Jan-21 13:59N 01°11' E 103°40'510.6
2018-Jan-21 13:30N 01°09' E 103°44'510.6
2018-Jan-21 13:00N 01°11' E 103°49'510.1
2018-Jan-21 12:30N 01°13' E 103°54'4 7.4
2018-Jan-21 12:00N 01°16' E 103°56'1 1.6
2018-Jan-21 11:22N 01°17' E 103°56'0 0.0
2018-Jan-21 10:40N 01°17' E 103°56'0 0.0
2018-Jan-21 09:43N 01°17' E 103°56'0 0.0
2018-Jan-21 09:28N 01°17' E 103°56'0 0.1
2018-Jan-21 08:58N 01°17' E 103°56'0 0.0
2018-Jan-21 08:28N 01°17' E 103°56'0 0.0
2018-Jan-21 07:58N 01°17' E 103°56'0 0.0
2018-Jan-21 06:28N 01°17' E 103°56'0 0.1
2018-Jan-21 05:55N 01°17' E 103°56'0 0.1
2018-Jan-21 03:49N 01°16' E 103°56'0 0.1
2018-Jan-21 03:25N 01°16' E 103°56'0 0.1
2018-Jan-21 02:22N 01°16' E 103°56'0 0.0
2018-Jan-21 01:01N 01°16' E 103°56'0 0.0
2018-Jan-21 00:52N 01°16' E 103°56'0 0.0
2018-Jan-21 00:22N 01°16' E 103°56'0 0.0
2018-Jan-20 23:52N 01°16' E 103°56'0 0.0
2018-Jan-20 23:25N 01°16' E 103°56'0 0.0
2018-Jan-20 22:55N 01°16' E 103°56'0 0.0
2018-Jan-20 20:25N 01°16' E 103°56'0 0.0
2018-Jan-20 19:25N 01°16' E 103°56'0 0.0
2018-Jan-20 18:37N 01°16' E 103°56'0 0.0
2018-Jan-20 18:22N 01°16' E 103°56'0 0.0
2018-Jan-20 17:59N 01°16' E 103°56'0 0.0
2018-Jan-20 17:23N 01°16' E 103°56'0 0.0
2018-Jan-20 16:57N 01°16' E 103°56'0 0.1
2018-Jan-20 16:30N 01°16' E 103°56'0 0.3
2018-Jan-20 15:59N 01°16' E 103°56'2 3.3
2018-Jan-20 15:30N 01°15' E 103°57'2 3.7
2018-Jan-20 14:59N 01°16' E 103°59'2 4.9
2018-Jan-20 14:31N 01°16' E 104°01'2 3.7
2018-Jan-20 13:58N 01°16' E 104°03'2 5.1
2018-Jan-20 13:29N 01°17' E 104°05'3 6.2
2018-Jan-20 12:57N 01°17' E 104°09'4 7.1
2018-Jan-20 12:22N 01°17' E 104°13'5 6.4
2018-Jan-20 11:31N 01°19' E 104°18'2 6.6
2018-Jan-20 11:15N 01°19' E 104°20'2 7.7
2018-Jan-20 10:57N 01°21' E 104°22'  

Dump ship's entire track history